Wetterdaten: Samstag, 29.12.2007
Datum Zeit Temp. A. Feuchte A. Luftdruck Regen Wind Richtung Richtung Sonnenschein UV Solar Windben
29.12.2007 00:00 2,7 C 87 % 1020,1 hPa 0,0 mm 4,8 km/h (1 Bft) SO 135 0 min 0 UV-I 0 W/m 11,3 km/h (2 Bft)
29.12.2007 00:10 2,7 C 87 % 1019,8 hPa 0,0 mm 4,8 km/h (1 Bft) O-SO 112 0 min 0 UV-I 0 W/m 11,3 km/h (2 Bft)
29.12.2007 00:20 2,6 C 87 % 1019,6 hPa 0,0 mm 3,2 km/h (1 Bft) O-SO 112 0 min 0 UV-I 0 W/m 9,7 km/h (2 Bft)
29.12.2007 00:30 2,6 C 87 % 1019,3 hPa 0,0 mm 4,8 km/h (1 Bft) O-SO 112 0 min 0 UV-I 0 W/m 11,3 km/h (2 Bft)
29.12.2007 00:40 2,5 C 87 % 1019,0 hPa 0,0 mm 3,2 km/h (1 Bft) O-SO 112 0 min 0 UV-I 0 W/m 11,3 km/h (2 Bft)
29.12.2007 00:50 2,4 C 87 % 1018,8 hPa 0,0 mm 3,2 km/h (1 Bft) O 90 0 min 0 UV-I 0 W/m 8,0 km/h (2 Bft)
29.12.2007 01:00 2,3 C 87 % 1018,6 hPa 0,0 mm 1,6 km/h (1 Bft) O 90 0 min 0 UV-I 0 W/m 6,4 km/h (2 Bft)
29.12.2007 01:10 2,2 C 87 % 1018,5 hPa 0,0 mm 3,2 km/h (1 Bft) O-SO 112 0 min 0 UV-I 0 W/m 8,0 km/h (2 Bft)
29.12.2007 01:20 2,1 C 87 % 1018,4 hPa 0,0 mm 1,6 km/h (1 Bft) O-SO 112 0 min 0 UV-I 0 W/m 4,8 km/h (1 Bft)
29.12.2007 01:30 1,9 C 87 % 1018,0 hPa 0,0 mm 3,2 km/h (1 Bft) O-SO 112 0 min 0 UV-I 0 W/m 6,4 km/h (2 Bft)
29.12.2007 01:40 1,8 C 88 % 1017,9 hPa 0,0 mm 3,2 km/h (1 Bft) SO 135 0 min 0 UV-I 0 W/m 11,3 km/h (2 Bft)
29.12.2007 01:50 1,8 C 89 % 1017,8 hPa 0,0 mm 4,8 km/h (1 Bft) SO 135 0 min 0 UV-I 0 W/m 9,7 km/h (2 Bft)
29.12.2007 02:00 2,1 C 89 % 1017,7 hPa 0,0 mm 3,2 km/h (1 Bft) SO 135 0 min 0 UV-I 0 W/m 11,3 km/h (2 Bft)
29.12.2007 02:10 2,2 C 88 % 1017,5 hPa 0,0 mm 4,8 km/h (1 Bft) O-SO 112 0 min 0 UV-I 0 W/m 17,7 km/h (3 Bft)
29.12.2007 02:20 2,4 C 87 % 1017,2 hPa 0,0 mm 4,8 km/h (1 Bft) S-SO 157 0 min 0 UV-I 0 W/m 17,7 km/h (3 Bft)
29.12.2007 02:30 2,7 C 85 % 1017,1 hPa 0,0 mm 4,8 km/h (1 Bft) O-SO 112 0 min 0 UV-I 0 W/m 11,3 km/h (2 Bft)
29.12.2007 02:40 2,7 C 84 % 1016,8 hPa 0,0 mm 6,4 km/h (2 Bft) O-SO 112 0 min 0 UV-I 0 W/m 17,7 km/h (3 Bft)
29.12.2007 02:50 2,8 C 82 % 1017,0 hPa 0,0 mm 6,4 km/h (2 Bft) O-SO 112 0 min 0 UV-I 0 W/m 16,1 km/h (3 Bft)
29.12.2007 03:00 2,7 C 81 % 1016,8 hPa 0,0 mm 4,8 km/h (1 Bft) SO 135 0 min 0 UV-I 0 W/m 20,9 km/h (4 Bft)
29.12.2007 03:10 2,6 C 81 % 1016,7 hPa 0,0 mm 4,8 km/h (1 Bft) S-SO 157 0 min 0 UV-I 0 W/m 11,3 km/h (2 Bft)
29.12.2007 03:20 2,5 C 81 % 1016,5 hPa 0,0 mm 4,8 km/h (1 Bft) O-SO 112 0 min 0 UV-I 0 W/m 14,5 km/h (3 Bft)
29.12.2007 03:30 2,4 C 80 % 1016,3 hPa 0,0 mm 4,8 km/h (1 Bft) SO 135 0 min 0 UV-I 0 W/m 14,5 km/h (3 Bft)
29.12.2007 03:40 2,4 C 80 % 1016,4 hPa 0,0 mm 4,8 km/h (1 Bft) S-SO 157 0 min 0 UV-I 0 W/m 11,3 km/h (2 Bft)
29.12.2007 03:50 2,3 C 80 % 1016,1 hPa 0,0 mm 4,8 km/h (1 Bft) SO 135 0 min 0 UV-I 0 W/m 9,7 km/h (2 Bft)
29.12.2007 04:00 2,3 C 79 % 1016,1 hPa 0,0 mm 4,8 km/h (1 Bft) SO 135 0 min 0 UV-I 0 W/m 11,3 km/h (2 Bft)
29.12.2007 04:10 2,3 C 79 % 1015,9 hPa 0,0 mm 6,4 km/h (2 Bft) O-SO 112 0 min 0 UV-I 0 W/m 16,1 km/h (3 Bft)
29.12.2007 04:20 2,3 C 78 % 1015,8 hPa 0,0 mm 6,4 km/h (2 Bft) SO 135 0 min 0 UV-I 0 W/m 17,7 km/h (3 Bft)
29.12.2007 04:30 2,2 C 78 % 1015,6 hPa 0,0 mm 4,8 km/h (1 Bft) O-SO 112 0 min 0 UV-I 0 W/m 17,7 km/h (3 Bft)
29.12.2007 04:40 2,2 C 78 % 1015,6 hPa 0,0 mm 3,2 km/h (1 Bft) S-SO 157 0 min 0 UV-I 0 W/m 11,3 km/h (2 Bft)
29.12.2007 04:50 2,2 C 77 % 1015,4 hPa 0,0 mm 4,8 km/h (1 Bft) SO 135 0 min 0 UV-I 0 W/m 16,1 km/h (3 Bft)
29.12.2007 05:00 2,1 C 77 % 1015,4 hPa 0,0 mm 3,2 km/h (1 Bft) O-SO 112 0 min 0 UV-I 0 W/m 8,0 km/h (2 Bft)
29.12.2007 05:10 2,1 C 77 % 1015,3 hPa 0,0 mm 1,6 km/h (1 Bft) S-SO 157 0 min 0 UV-I 0 W/m 8,0 km/h (2 Bft)
29.12.2007 05:20 2,0 C 76 % 1015,4 hPa 0,0 mm 3,2 km/h (1 Bft) O-SO 112 0 min 0 UV-I 0 W/m 8,0 km/h (2 Bft)
29.12.2007 05:30 1,9 C 76 % 1015,1 hPa 0,0 mm 3,2 km/h (1 Bft) S-SO 157 0 min 0 UV-I 0 W/m 8,0 km/h (2 Bft)
29.12.2007 05:40 1,8 C 76 % 1015,1 hPa 0,0 mm 3,2 km/h (1 Bft) S-SO 157 0 min 0 UV-I 0 W/m 14,5 km/h (3 Bft)
29.12.2007 05:50 1,8 C 76 % 1014,9 hPa 0,0 mm 1,6 km/h (1 Bft) SO 135 0 min 0 UV-I 0 W/m 6,4 km/h (2 Bft)
29.12.2007 06:00 1,7 C 76 % 1014,9 hPa 0,0 mm 1,6 km/h (1 Bft) O-SO 112 0 min 0 UV-I 0 W/m 6,4 km/h (2 Bft)
29.12.2007 06:10 1,5 C 76 % 1015,2 hPa 0,0 mm 1,6 km/h (1 Bft) O-SO 112 0 min 0 UV-I 0 W/m 4,8 km/h (1 Bft)
29.12.2007 06:20 1,3 C 76 % 1014,9 hPa 0,0 mm 1,6 km/h (1 Bft) S-SO 157 0 min 0 UV-I 0 W/m 4,8 km/h (1 Bft)
29.12.2007 06:30 1,3 C 77 % 1015,1 hPa 0,0 mm 1,6 km/h (1 Bft) SO 135 0 min 0 UV-I 0 W/m 4,8 km/h (1 Bft)
29.12.2007 06:40 1,2 C 78 % 1015,0 hPa 0,0 mm 1,6 km/h (1 Bft) SO 135 0 min 0 UV-I 0 W/m 3,2 km/h (1 Bft)
29.12.2007 06:50 1,2 C 79 % 1014,9 hPa 0,0 mm 1,6 km/h (1 Bft) SO 135 0 min 0 UV-I 0 W/m 4,8 km/h (1 Bft)
29.12.2007 07:00 1,2 C 79 % 1014,7 hPa 0,0 mm 1,6 km/h (1 Bft) O-SO 112 0 min 0 UV-I 0 W/m 4,8 km/h (1 Bft)
29.12.2007 07:10 1,3 C 79 % 1014,7 hPa 0,0 mm 1,6 km/h (1 Bft) O-SO 112 0 min 0 UV-I 0 W/m 6,4 km/h (2 Bft)
29.12.2007 07:20 1,4 C 79 % 1014,7 hPa 0,0 mm 1,6 km/h (1 Bft) O-SO 112 0 min 0 UV-I 0 W/m 4,8 km/h (1 Bft)
29.12.2007 07:30 1,6 C 79 % 1014,7 hPa 0,0 mm 1,6 km/h (1 Bft) S-SO 157 0 min 0 UV-I 0 W/m 3,2 km/h (1 Bft)
29.12.2007 07:40 1,7 C 78 % 1014,6 hPa 0,0 mm 1,6 km/h (1 Bft) S 180 0 min 0 UV-I 0 W/m 4,8 km/h (1 Bft)
29.12.2007 07:50 2,1 C 79 % 1014,4 hPa 0,0 mm 4,8 km/h (1 Bft) S 180 0 min 0 UV-I 0 W/m 17,7 km/h (3 Bft)
29.12.2007 08:00 2,8 C 78 % 1014,1 hPa 0,0 mm 3,2 km/h (1 Bft) S 180 0 min 0 UV-I 0 W/m 11,3 km/h (2 Bft)
29.12.2007 08:10 3,2 C 77 % 1014,2 hPa 0,0 mm 1,6 km/h (1 Bft) S-SW 202 0 min 0 UV-I 0 W/m 8,0 km/h (2 Bft)
29.12.2007 08:20 3,6 C 78 % 1014,1 hPa 0,0 mm 4,8 km/h (1 Bft) S-SW 202 0 min 0 UV-I 0 W/m 17,7 km/h (3 Bft)
29.12.2007 08:30 4,2 C 77 % 1014,2 hPa 0,0 mm 4,8 km/h (1 Bft) SW 225 0 min 0 UV-I 0 W/m 16,1 km/h (3 Bft)
29.12.2007 08:40 4,5 C 77 % 1014,2 hPa 0,0 mm 4,8 km/h (1 Bft) SW 225 0 min 0 UV-I 0 W/m 17,7 km/h (3 Bft)
29.12.2007 08:50 4,7 C 79 % 1014,2 hPa 0,0 mm 4,8 km/h (1 Bft) SW 225 0 min 0 UV-I 0 W/m 16,1 km/h (3 Bft)
29.12.2007 09:00 4,8 C 79 % 1014,2 hPa 0,0 mm 3,2 km/h (1 Bft) S-SW 202 0 min 0 UV-I 5 W/m 9,7 km/h (2 Bft)
29.12.2007 09:10 4,8 C 79 % 1014,3 hPa 0,0 mm 4,8 km/h (1 Bft) S-SW 202 0 min 0 UV-I 5 W/m 17,7 km/h (3 Bft)
29.12.2007 09:20 4,9 C 80 % 1014,2 hPa 0,0 mm 4,8 km/h (1 Bft) S 180 0 min 0 UV-I 9 W/m 16,1 km/h (3 Bft)
29.12.2007 09:30 5,1 C 80 % 1014,0 hPa 0,0 mm 4,8 km/h (1 Bft) S-SW 202 0 min 0 UV-I 16 W/m 19,3 km/h (3 Bft)
29.12.2007 09:40 5,1 C 81 % 1014,0 hPa 0,0 mm 4,8 km/h (1 Bft) S-SW 202 0 min 0 UV-I 16 W/m 11,3 km/h (2 Bft)
29.12.2007 09:50 5,1 C 82 % 1014,3 hPa 0,0 mm 4,8 km/h (1 Bft) S-SW 202 0 min 0 UV-I 12 W/m 16,1 km/h (3 Bft)
29.12.2007 10:00 5,1 C 82 % 1014,3 hPa 0,0 mm 4,8 km/h (1 Bft) S-SW 202 0 min 0 UV-I 5 W/m 16,1 km/h (3 Bft)
29.12.2007 10:10 5,1 C 82 % 1014,3 hPa 0,0 mm 4,8 km/h (1 Bft) S-SW 202 0 min 0 UV-I 0 W/m 16,1 km/h (3 Bft)
29.12.2007 10:20 5,2 C 82 % 1014,4 hPa 0,0 mm 4,8 km/h (1 Bft) S-SW 202 0 min 0 UV-I 9 W/m 20,9 km/h (4 Bft)
29.12.2007 10:30 5,3 C 82 % 1014,4 hPa 0,0 mm 6,4 km/h (2 Bft) S-SW 202 0 min 0 UV-I 7 W/m 20,9 km/h (4 Bft)
29.12.2007 10:40 5,4 C 82 % 1014,4 hPa 0,0 mm 6,4 km/h (2 Bft) S-SW 202 0 min 0 UV-I 12 W/m 19,3 km/h (3 Bft)
29.12.2007 10:50 5,7 C 81 % 1014,4 hPa 0,0 mm 6,4 km/h (2 Bft) SW 225 0 min 0 UV-I 12 W/m 17,7 km/h (3 Bft)
29.12.2007 11:00 5,8 C 80 % 1014,5 hPa 0,0 mm 6,4 km/h (2 Bft) SW 225 0 min 0 UV-I 18 W/m 19,3 km/h (3 Bft)
29.12.2007 11:10 5,8 C 80 % 1014,2 hPa 0,0 mm 6,4 km/h (2 Bft) S-SW 202 0 min 0 UV-I 12 W/m 17,7 km/h (3 Bft)
29.12.2007 11:20 5,8 C 80 % 1014,2 hPa 0,0 mm 8,0 km/h (2 Bft) SW 225 0 min 0 UV-I 18 W/m 20,9 km/h (4 Bft)
29.12.2007 11:30 5,9 C 80 % 1014,1 hPa 0,0 mm 9,7 km/h (2 Bft) SW 225 0 min 0 UV-I 19 W/m 25,7 km/h (4 Bft)
29.12.2007 11:40 6,1 C 80 % 1013,9 hPa 0,0 mm 9,7 km/h (2 Bft) S-SW 202 0 min 0 UV-I 30 W/m 24,1 km/h (4 Bft)
29.12.2007 11:50 6,2 C 79 % 1013,9 hPa 0,0 mm 9,7 km/h (2 Bft) SW 225 0 min 0 UV-I 40 W/m 22,5 km/h (4 Bft)
29.12.2007 12:00 6,2 C 79 % 1013,9 hPa 0,0 mm 6,4 km/h (2 Bft) SW 225 0 min 0 UV-I 26 W/m 24,1 km/h (4 Bft)
29.12.2007 12:10 6,2 C 79 % 1013,9 hPa 0,0 mm 8,0 km/h (2 Bft) SW 225 0 min 0 UV-I 16 W/m 19,3 km/h (3 Bft)
29.12.2007 12:20 6,2 C 79 % 1013,9 hPa 0,0 mm 8,0 km/h (2 Bft) SW 225 0 min 0 UV-I 69 W/m 19,3 km/h (3 Bft)
29.12.2007 12:30 6,2 C 80 % 1013,8 hPa 0,0 mm 8,0 km/h (2 Bft) SW 225 0 min 0 UV-I 137 W/m 17,7 km/h (3 Bft)
29.12.2007 12:40 6,4 C 79 % 1013,5 hPa 0,0 mm 6,4 km/h (2 Bft) SW 225 10 min 1 UV-I 230 W/m 19,3 km/h (3 Bft)
29.12.2007 12:50 6,7 C 78 % 1013,5 hPa 0,0 mm 6,4 km/h (2 Bft) S-SW 202 10 min 1 UV-I 227 W/m 17,7 km/h (3 Bft)
29.12.2007 13:00 6,8 C 77 % 1013,5 hPa 0,0 mm 4,8 km/h (1 Bft) SW 225 10 min 1 UV-I 221 W/m 20,9 km/h (4 Bft)
29.12.2007 13:10 6,8 C 77 % 1013,4 hPa 0,0 mm 6,4 km/h (2 Bft) SW 225 10 min 1 UV-I 246 W/m 19,3 km/h (3 Bft)
29.12.2007 13:20 7,0 C 76 % 1013,4 hPa 0,0 mm 8,0 km/h (2 Bft) W-SW 247 10 min 1 UV-I 155 W/m 20,9 km/h (4 Bft)
29.12.2007 13:30 7,2 C 76 % 1013,5 hPa 0,0 mm 8,0 km/h (2 Bft) SW 225 10 min 0 UV-I 171 W/m 19,3 km/h (3 Bft)
29.12.2007 13:40 7,3 C 75 % 1013,6 hPa 0,0 mm 8,0 km/h (2 Bft) SW 225 10 min 0 UV-I 163 W/m 17,7 km/h (3 Bft)
29.12.2007 13:50 7,5 C 75 % 1013,6 hPa 0,0 mm 8,0 km/h (2 Bft) SW 225 10 min 0 UV-I 139 W/m 22,5 km/h (4 Bft)
29.12.2007 14:00 7,6 C 75 % 1013,6 hPa 0,0 mm 8,0 km/h (2 Bft) W-SW 247 10 min 0 UV-I 151 W/m 19,3 km/h (3 Bft)
29.12.2007 14:10 7,4 C 74 % 1013,5 hPa 0,0 mm 9,7 km/h (2 Bft) W-SW 247 0 min 0 UV-I 60 W/m 20,9 km/h (4 Bft)
29.12.2007 14:20 7,3 C 75 % 1013,7 hPa 0,0 mm 8,0 km/h (2 Bft) SW 225 0 min 0 UV-I 39 W/m 17,7 km/h (3 Bft)
29.12.2007 14:30 7,2 C 76 % 1013,9 hPa 0,0 mm 8,0 km/h (2 Bft) SW 225 0 min 0 UV-I 30 W/m 27,4 km/h (4 Bft)
29.12.2007 14:40 7,1 C 76 % 1013,9 hPa 0,0 mm 6,4 km/h (2 Bft) SW 225 0 min 0 UV-I 46 W/m 16,1 km/h (3 Bft)
29.12.2007 14:50 6,9 C 76 % 1014,1 hPa 0,0 mm 6,4 km/h (2 Bft) S-SW 202 0 min 0 UV-I 49 W/m 17,7 km/h (3 Bft)
29.12.2007 15:00 6,8 C 77 % 1014,1 hPa 0,0 mm 6,4 km/h (2 Bft) SW 225 0 min 0 UV-I 42 W/m 19,3 km/h (3 Bft)
29.12.2007 15:10 6,6 C 77 % 1014,0 hPa 0,0 mm 4,8 km/h (1 Bft) S-SW 202 0 min 0 UV-I 37 W/m 11,3 km/h (2 Bft)
29.12.2007 15:20 6,5 C 77 % 1014,1 hPa 0,0 mm 4,8 km/h (1 Bft) S-SW 202 0 min 0 UV-I 32 W/m 19,3 km/h (3 Bft)
29.12.2007 15:30 6,4 C 77 % 1014,3 hPa 0,0 mm 4,8 km/h (1 Bft) S-SW 202 0 min 0 UV-I 28 W/m 11,3 km/h (2 Bft)
29.12.2007 15:40 6,3 C 77 % 1014,4 hPa 0,0 mm 4,8 km/h (1 Bft) SW 225 0 min 0 UV-I 26 W/m 12,9 km/h (3 Bft)
29.12.2007 15:50 6,2 C 77 % 1014,5 hPa 0,0 mm 3,2 km/h (1 Bft) SW 225 0 min 0 UV-I 18 W/m 8,0 km/h (2 Bft)
29.12.2007 16:00 6,1 C 77 % 1014,3 hPa 0,0 mm 4,8 km/h (1 Bft) SW 225 0 min 0 UV-I 16 W/m 11,3 km/h (2 Bft)
29.12.2007 16:10 5,9 C 77 % 1014,3 hPa 0,0 mm 3,2 km/h (1 Bft) S-SW 202 0 min 0 UV-I 14 W/m 8,0 km/h (2 Bft)
29.12.2007 16:20 5,8 C 77 % 1014,4 hPa 0,0 mm 3,2 km/h (1 Bft) SW 225 0 min 0 UV-I 7 W/m 11,3 km/h (2 Bft)
29.12.2007 16:30 5,7 C 77 % 1014,5 hPa 0,0 mm 4,8 km/h (1 Bft) SW 225 0 min 0 UV-I 0 W/m 11,3 km/h (2 Bft)
29.12.2007 16:40 5,7 C 77 % 1014,6 hPa 0,0 mm 6,4 km/h (2 Bft) SW 225 0 min 0 UV-I 0 W/m 14,5 km/h (3 Bft)
29.12.2007 16:50 5,6 C 77 % 1014,7 hPa 0,0 mm 4,8 km/h (1 Bft) SW 225 0 min 0 UV-I 0 W/m 17,7 km/h (3 Bft)
29.12.2007 17:00 5,5 C 78 % 1014,8 hPa 0,0 mm 4,8 km/h (1 Bft) SW 225 0 min 0 UV-I 0 W/m 16,1 km/h (3 Bft)
29.12.2007 17:10 5,3 C 78 % 1014,8 hPa 0,0 mm 3,2 km/h (1 Bft) W-SW 247 0 min 0 UV-I 0 W/m 6,4 km/h (2 Bft)
29.12.2007 17:20 5,1 C 79 % 1014,8 hPa 0,0 mm 3,2 km/h (1 Bft) S-SW 202 0 min 0 UV-I 0 W/m 6,4 km/h (2 Bft)
29.12.2007 17:30 5,0 C 79 % 1014,9 hPa 0,0 mm 1,6 km/h (1 Bft) SW 225 0 min 0 UV-I 0 W/m 8,0 km/h (2 Bft)
29.12.2007 17:40 4,8 C 80 % 1014,9 hPa 0,0 mm 3,2 km/h (1 Bft) SW 225 0 min 0 UV-I 0 W/m 9,7 km/h (2 Bft)
29.12.2007 17:50 4,7 C 81 % 1015,0 hPa 0,0 mm 3,2 km/h (1 Bft) SW 225 0 min 0 UV-I 0 W/m 9,7 km/h (2 Bft)
29.12.2007 18:00 4,6 C 81 % 1015,0 hPa 0,0 mm 3,2 km/h (1 Bft) W-SW 247 0 min 0 UV-I 0 W/m 9,7 km/h (2 Bft)
29.12.2007 18:10 4,6 C 81 % 1015,0 hPa 0,0 mm 3,2 km/h (1 Bft) SW 225 0 min 0 UV-I 0 W/m 11,3 km/h (2 Bft)
29.12.2007 18:20 4,7 C 80 % 1015,0 hPa 0,0 mm 3,2 km/h (1 Bft) S-SW 202 0 min 0 UV-I 0 W/m 11,3 km/h (2 Bft)
29.12.2007 18:30 4,6 C 80 % 1015,1 hPa 0,0 mm 3,2 km/h (1 Bft) SW 225 0 min 0 UV-I 0 W/m 9,7 km/h (2 Bft)
29.12.2007 18:40 4,4 C 81 % 1014,9 hPa 0,0 mm 3,2 km/h (1 Bft) S-SW 202 0 min 0 UV-I 0 W/m 11,3 km/h (2 Bft)
29.12.2007 18:50 4,4 C 81 % 1015,0 hPa 0,0 mm 3,2 km/h (1 Bft) SW 225 0 min 0 UV-I 0 W/m 9,7 km/h (2 Bft)
29.12.2007 19:00 4,3 C 81 % 1015,1 hPa 0,0 mm 3,2 km/h (1 Bft) S-SW 202 0 min 0 UV-I 0 W/m 9,7 km/h (2 Bft)
29.12.2007 19:10 4,3 C 82 % 1015,0 hPa 0,0 mm 3,2 km/h (1 Bft) SW 225 0 min 0 UV-I 0 W/m 11,3 km/h (2 Bft)
29.12.2007 19:20 4,3 C 82 % 1015,0 hPa 0,0 mm 3,2 km/h (1 Bft) SW 225 0 min 0 UV-I 0 W/m 9,7 km/h (2 Bft)
29.12.2007 19:30 4,3 C 82 % 1014,8 hPa 0,0 mm 3,2 km/h (1 Bft) SW 225 0 min 0 UV-I 0 W/m 9,7 km/h (2 Bft)
29.12.2007 19:40 4,3 C 82 % 1014,8 hPa 0,0 mm 3,2 km/h (1 Bft) S-SW 202 0 min 0 UV-I 0 W/m 11,3 km/h (2 Bft)
29.12.2007 19:50 4,3 C 83 % 1014,9 hPa 0,0 mm 4,8 km/h (1 Bft) SW 225 0 min 0 UV-I 0 W/m 9,7 km/h (2 Bft)
29.12.2007 20:00 4,3 C 83 % 1014,9 hPa 0,0 mm 4,8 km/h (1 Bft) SW 225 0 min 0 UV-I 0 W/m 16,1 km/h (3 Bft)
29.12.2007 20:10 4,5 C 83 % 1014,8 hPa 0,0 mm 4,8 km/h (1 Bft) S-SW 202 0 min 0 UV-I 0 W/m 11,3 km/h (2 Bft)
29.12.2007 20:20 4,6 C 82 % 1014,9 hPa 0,0 mm 4,8 km/h (1 Bft) SW 225 0 min 0 UV-I 0 W/m 11,3 km/h (2 Bft)
29.12.2007 20:30 4,7 C 82 % 1014,8 hPa 0,0 mm 3,2 km/h (1 Bft) SW 225 0 min 0 UV-I 0 W/m 9,7 km/h (2 Bft)
29.12.2007 20:40 4,7 C 82 % 1014,8 hPa 0,0 mm 4,8 km/h (1 Bft) SW 225 0 min 0 UV-I 0 W/m 14,5 km/h (3 Bft)
29.12.2007 20:50 4,8 C 82 % 1014,7 hPa 0,0 mm 4,8 km/h (1 Bft) SW 225 0 min 0 UV-I 0 W/m 20,9 km/h (4 Bft)
29.12.2007 21:00 4,8 C 82 % 1014,8 hPa 0,0 mm 4,8 km/h (1 Bft) W-SW 247 0 min 0 UV-I 0 W/m 16,1 km/h (3 Bft)
29.12.2007 21:10 4,9 C 82 % 1014,6 hPa 0,0 mm 6,4 km/h (2 Bft) SW 225 0 min 0 UV-I 0 W/m 14,5 km/h (3 Bft)
29.12.2007 21:20 4,9 C 81 % 1014,5 hPa 0,0 mm 4,8 km/h (1 Bft) SW 225 0 min 0 UV-I 0 W/m 14,5 km/h (3 Bft)
29.12.2007 21:30 4,9 C 81 % 1014,6 hPa 0,0 mm 6,4 km/h (2 Bft) SW 225 0 min 0 UV-I 0 W/m 12,9 km/h (3 Bft)
29.12.2007 21:40 4,9 C 81 % 1014,8 hPa 0,0 mm 6,4 km/h (2 Bft) SW 225 0 min 0 UV-I 0 W/m 14,5 km/h (3 Bft)
29.12.2007 21:50 5,0 C 81 % 1014,8 hPa 0,0 mm 6,4 km/h (2 Bft) SW 225 0 min 0 UV-I 0 W/m 14,5 km/h (3 Bft)
29.12.2007 22:00 5,0 C 81 % 1014,8 hPa 0,0 mm 4,8 km/h (1 Bft) S-SW 202 0 min 0 UV-I 0 W/m 14,5 km/h (3 Bft)
29.12.2007 22:10 4,9 C 81 % 1014,8 hPa 0,0 mm 4,8 km/h (1 Bft) SW 225 0 min 0 UV-I 0 W/m 11,3 km/h (2 Bft)
29.12.2007 22:20 4,9 C 81 % 1014,8 hPa 0,0 mm 4,8 km/h (1 Bft) SW 225 0 min 0 UV-I 0 W/m 11,3 km/h (2 Bft)
29.12.2007 22:30 4,8 C 82 % 1014,8 hPa 0,0 mm 4,8 km/h (1 Bft) SW 225 0 min 0 UV-I 0 W/m 16,1 km/h (3 Bft)
29.12.2007 22:40 4,8 C 82 % 1014,8 hPa 0,0 mm 4,8 km/h (1 Bft) SW 225 0 min 0 UV-I 0 W/m 14,5 km/h (3 Bft)
29.12.2007 22:50 4,8 C 82 % 1014,7 hPa 0,0 mm 4,8 km/h (1 Bft) SW 225 0 min 0 UV-I 0 W/m 17,7 km/h (3 Bft)
29.12.2007 23:00 4,8 C 82 % 1014,8 hPa 0,0 mm 4,8 km/h (1 Bft) W-SW 247 0 min 0 UV-I 0 W/m 14,5 km/h (3 Bft)
29.12.2007 23:10 4,8 C 82 % 1014,7 hPa 0,0 mm 4,8 km/h (1 Bft) SW 225 0 min 0 UV-I 0 W/m 9,7 km/h (2 Bft)
29.12.2007 23:20 4,7 C 82 % 1014,7 hPa 0,0 mm 4,8 km/h (1 Bft) W-SW 247 0 min 0 UV-I 0 W/m 11,3 km/h (2 Bft)
29.12.2007 23:30 4,5 C 82 % 1014,7 hPa 0,0 mm 3,2 km/h (1 Bft) SW 225 0 min 0 UV-I 0 W/m 14,5 km/h (3 Bft)
29.12.2007 23:40 4,4 C 83 % 1014,7 hPa 0,0 mm 4,8 km/h (1 Bft) SW 225 0 min 0 UV-I 0 W/m 14,5 km/h (3 Bft)
29.12.2007 23:50 4,4 C 83 % 1014,7 hPa 0,0 mm 4,8 km/h (1 Bft) SW 225 0 min 0 UV-I 0 W/m 11,3 km/h (2 Bft)
_ Min-Zeit 06:30 14:10 13:10 - 01:00 - - - - - 06:40
Minimum _ 1,2 C 74 % 1013,4 hPa - 1,6 km/h (1 Bft) - - - - - 3,2 km/h (1 Bft)
_ Max-Zeit 14:00 01:50 00:00 00:00 11:30 - - 12:40 12:40 13:10 14:30
Maximum _ 7,6 C 89 % 1020,1 hPa 0,0 mm 9,7 km/h
SW (2 Bft)
- - 10 min 1 UV-I 246 W/m 27,4 km/h
SW (4 Bft)
Durchschnitt _ 4,3 C 80 % 1015,1 hPa #0,0 mm 4,7 km/h (1 Bft) SW - #1:30 h 1 UV-I 60 W/m 13,5 km/h (3 Bft)